Time;durP1;ratioP1;P1;durP2;ratioP2;P2;SDS_P1;SDS_P2;PMS_P1;PMS_P2;Temp;Humidity;BMP_temperature;BMP_pressure;BME280_temperature;BME280_humidity;BME280_pressure;Samples;Min_cycle;Max_cycle;Signal;HPM_P1;HPM_P2
2022/09/23 00:00:18;;;;;;;;;;;;;;;20.71;31.59;97988.44;5037830;28;1910;-85
2022/09/23 00:02:46;;;;;;;;;;;;;;;20.84;31.65;97985.75;5037753;28;758;-84
2022/09/23 00:05:11;;;;;;;;;;;;;;;20.96;31.31;97987.06;5037582;28;695;-85
2022/09/23 00:07:37;;;;;;;;;;;;;;;20.80;31.83;97991.47;5021452;28;878;-85
2022/09/23 00:10:03;;;;;;;;;;;;;;;21.05;31.63;97990.09;5038164;28;1248;-85
2022/09/23 00:12:28;;;;;;;;;;;;;;;21.40;30.78;97999.75;5021326;28;1114;-85
2022/09/23 00:14:54;;;;;;;;;;;;;;;21.05;31.20;97995.75;5037399;28;882;-85
2022/09/23 00:17:19;;;;;;;;;;;;;;;21.01;31.36;97995.03;5037324;28;735;-84
2022/09/23 00:19:45;;;;;;;;;;;;;;;21.00;31.16;97999.09;5067624;28;1979;-85
2022/09/23 00:22:11;;;;;;;;;;;;;;;21.01;31.14;98000.69;5077566;28;789;-85
2022/09/23 00:24:36;;;;;;;;;;;;;;;20.83;31.29;98005.94;5078658;28;937;-85
2022/09/23 00:27:02;;;;;;;;;;;;;;;20.71;31.58;98005.41;5095944;28;782;-85
2022/09/23 00:29:27;;;;;;;;;;;;;;;20.84;31.29;98010.41;5112084;28;789;-84
2022/09/23 00:31:52;;;;;;;;;;;;;;;20.63;32.06;97998.34;5079486;28;817;-85
2022/09/23 00:34:18;;;;;;;;;;;;;;;20.92;31.70;98003.31;5094103;28;914;-85
2022/09/23 00:36:43;;;;;;;;;;;;;;;21.19;31.24;97988.91;5079290;28;822;-85
2022/09/23 00:39:09;;;;;;;;;;;;;;;21.36;30.85;97995.41;5112525;28;814;-85
2022/09/23 00:41:35;;;;;;;;;;;;;;;21.20;31.04;97994.16;5079133;28;1921;-85
2022/09/23 00:44:00;;;;;;;;;;;;;;;21.20;30.98;97996.19;5078927;28;774;-84
2022/09/23 00:46:29;;;;;;;;;;;;;;;21.06;31.19;97991.66;5095220;28;1477;-85
2022/09/23 00:49:04;;;;;;;;;;;;;;;20.99;31.47;97989.03;5078242;28;1188;-85
2022/09/23 00:51:33;;;;;;;;;;;;;;;20.81;31.57;97993.06;5079403;28;789;-85
2022/09/23 00:53:59;;;;;;;;;;;;;;;20.53;32.13;97991.69;5094603;28;1255;-84
2022/09/23 00:56:24;;;;;;;;;;;;;;;20.65;32.01;97986.59;5079289;28;738;-85
2022/09/23 00:58:50;;;;;;;;;;;;;;;20.59;32.00;97986.31;5094710;28;794;-85
2022/09/23 01:01:16;;;;;;;;;;;;;;;20.71;31.73;97991.28;5111646;28;1925;-85
2022/09/23 01:03:42;;;;;;;;;;;;;;;20.94;31.57;97992.38;5076682;28;1252;-85
2022/09/23 01:06:07;;;;;;;;;;;;;;;21.27;31.00;97991.13;5078894;28;869;-85
2022/09/23 01:08:33;;;;;;;;;;;;;;;21.37;30.42;97980.81;5094277;28;1261;-85
2022/09/23 01:11:01;;;;;;;;;;;;;;;21.03;31.39;97990.50;5078321;28;1104;-85
2022/09/23 01:13:33;;;;;;;;;;;;;;;20.82;31.76;97988.19;5078072;28;850;-85
2022/09/23 01:16:03;;;;;;;;;;;;;;;21.08;31.06;97983.53;5077550;28;750;-85
2022/09/23 01:18:47;;;;;;;;;;;;;;;20.80;31.42;97980.16;5094190;28;1236;-85
2022/09/23 01:21:31;;;;;;;;;;;;;;;20.81;31.64;97987.41;5110854;28;1972;-85
2022/09/23 01:24:15;;;;;;;;;;;;;;;21.16;31.30;97989.81;5077081;28;731;-85
2022/09/23 01:26:40;;;;;;;;;;;;;;;21.30;30.89;97978.97;5078653;28;736;-85
2022/09/23 01:29:15;;;;;;;;;;;;;;;21.06;31.05;97975.50;5078383;28;769;-85
2022/09/23 01:31:43;;;;;;;;;;;;;;;20.78;31.76;97976.97;5078402;28;813;-85
2022/09/23 01:34:14;;;;;;;;;;;;;;;21.01;31.05;97984.50;5077722;28;904;-85
2022/09/23 01:36:42;;;;;;;;;;;;;;;20.96;31.28;97992.72;5093047;28;928;-85
2022/09/23 01:39:07;;;;;;;;;;;;;;;20.68;32.03;97983.69;5042566;28;1117;-85
2022/09/23 01:41:52;;;;;;;;;;;;;;;20.88;31.44;97992.13;5075699;28;1918;-85
2022/09/23 01:44:29;;;;;;;;;;;;;;;20.84;31.36;97984.94;5059096;28;1099;-85
2022/09/23 01:47:17;;;;;;;;;;;;;;;21.01;31.63;97983.72;5075950;28;828;-85
2022/09/23 01:49:51;;;;;;;;;;;;;;;21.40;30.75;97987.59;5072421;28;1102;-84
2022/09/23 01:52:19;;;;;;;;;;;;;;;21.22;31.05;97988.84;5056379;28;898;-85
2022/09/23 01:54:50;;;;;;;;;;;;;;;21.16;30.89;97998.31;5072099;28;864;-85
2022/09/23 01:57:21;;;;;;;;;;;;;;;21.01;31.19;98000.69;5039374;28;1223;-85
2022/09/23 01:59:47;;;;;;;;;;;;;;;20.81;31.67;97983.78;5039010;28;2130;-85
2022/09/23 02:02:20;;;;;;;;;;;;;;;20.77;31.91;97985.88;5039562;28;943;-85
2022/09/23 02:04:50;;;;;;;;;;;;;;;20.87;31.35;97984.03;5039215;28;846;-85
2022/09/23 02:07:21;;;;;;;;;;;;;;;20.81;31.57;97987.41;5029689;28;861;-85
2022/09/23 02:09:49;;;;;;;;;;;;;;;20.79;31.78;98001.19;5059014;28;762;-84
2022/09/23 02:12:16;;;;;;;;;;;;;;;21.00;31.32;97987.78;5035463;28;930;-85
2022/09/23 02:14:41;;;;;;;;;;;;;;;21.17;31.48;97992.19;5019330;28;1356;-85
2022/09/23 02:17:08;;;;;;;;;;;;;;;21.30;31.29;97990.28;5019112;28;814;-85
2022/09/23 02:19:39;;;;;;;;;;;;;;;21.18;31.00;97993.78;5018782;28;1906;-85
2022/09/23 02:22:07;;;;;;;;;;;;;;;20.91;31.53;97996.88;5019013;28;759;-85
2022/09/23 02:24:35;;;;;;;;;;;;;;;21.08;31.15;97994.84;5002486;28;1176;-85
2022/09/23 02:27:12;;;;;;;;;;;;;;;21.04;31.21;97994.94;5031816;28;1109;-85
2022/09/23 02:29:48;;;;;;;;;;;;;;;20.76;31.65;97993.56;5022252;28;1195;-84
2022/09/23 02:32:17;;;;;;;;;;;;;;;21.01;31.96;97989.38;5055274;28;719;-85
2022/09/23 02:35:00;;;;;;;;;;;;;;;21.29;31.22;97987.84;5038633;28;850;-85
2022/09/23 02:37:26;;;;;;;;;;;;;;;21.44;30.87;97985.47;5038622;28;920;-85
2022/09/23 02:40:12;;;;;;;;;;;;;;;21.07;31.39;97979.91;5055119;28;1977;-85
2022/09/23 02:42:40;;;;;;;;;;;;;;;21.14;30.99;97975.28;5038481;28;790;-85
2022/09/23 02:45:05;;;;;;;;;;;;;;;20.75;31.62;97983.50;5038340;28;802;-85
2022/09/23 02:47:31;;;;;;;;;;;;;;;20.79;31.62;97983.44;5038514;28;735;-85
2022/09/23 02:49:56;;;;;;;;;;;;;;;21.16;31.19;97979.28;5060418;28;803;-85
2022/09/23 02:52:23;;;;;;;;;;;;;;;21.08;31.29;97989.19;5077269;28;731;-85
2022/09/23 02:54:49;;;;;;;;;;;;;;;21.14;31.83;97993.09;5076788;28;734;-84
2022/09/23 02:57:15;;;;;;;;;;;;;;;21.33;31.27;97995.03;5110098;28;785;-85
2022/09/23 02:59:40;;;;;;;;;;;;;;;21.05;31.65;97990.09;5092518;28;1965;-85
2022/09/23 03:02:25;;;;;;;;;;;;;;;21.01;31.74;97992.19;5110065;28;774;-85
2022/09/23 03:04:57;;;;;;;;;;;;;;;21.06;31.64;97997.31;5075503;28;746;-85
2022/09/23 03:07:41;;;;;;;;;;;;;;;20.97;31.50;97992.28;5077402;28;735;-84
2022/09/23 03:10:14;;;;;;;;;;;;;;;21.05;31.61;97995.75;5075906;28;839;-85
2022/09/23 03:12:41;;;;;;;;;;;;;;;21.19;31.60;97995.41;5092571;28;778;-85
2022/09/23 03:15:09;;;;;;;;;;;;;;;21.42;31.09;97996.47;5076076;28;1188;-85
2022/09/23 03:17:38;;;;;;;;;;;;;;;21.44;31.13;97999.63;5076950;28;722;-85
2022/09/23 03:20:06;;;;;;;;;;;;;;;21.15;31.49;98000.34;5076449;28;1898;-85
2022/09/23 03:22:38;;;;;;;;;;;;;;;20.89;31.81;98004.22;5109249;28;821;-85
2022/09/23 03:25:09;;;;;;;;;;;;;;;20.87;31.69;98006.66;5091918;28;814;-84
2022/09/23 03:27:35;;;;;;;;;;;;;;;21.01;31.49;98014.81;5111830;28;770;-85
2022/09/23 03:30:00;;;;;;;;;;;;;;;21.01;31.46;98009.16;5112799;28;717;-85
2022/09/23 03:32:26;;;;;;;;;;;;;;;21.04;31.55;98011.91;5096473;28;1200;-84
2022/09/23 03:34:53;;;;;;;;;;;;;;;20.88;31.78;98013.91;5112898;28;821;-84
2022/09/23 03:37:21;;;;;;;;;;;;;;;20.74;32.09;98004.53;5118811;28;869;-84
2022/09/23 03:39:46;;;;;;;;;;;;;;;20.74;31.81;98004.53;5108658;28;1983;-85
2022/09/23 03:42:19;;;;;;;;;;;;;;;20.65;31.95;98012.81;5098363;28;1876;-85
2022/09/23 03:44:45;;;;;;;;;;;;;;;20.65;31.83;98007.16;5041362;28;1098;-85
2022/09/23 03:47:13;;;;;;;;;;;;;;;21.03;32.12;98009.50;5045426;28;1762;-85
2022/09/23 03:49:39;;;;;;;;;;;;;;;21.32;31.20;98007.59;5041432;28;911;-85
2022/09/23 03:52:05;;;;;;;;;;;;;;;21.24;31.12;98013.84;5058172;28;809;-85
2022/09/23 03:54:31;;;;;;;;;;;;;;;21.13;31.44;98019.78;5058169;28;833;-84
2022/09/23 03:56:57;;;;;;;;;;;;;;;21.13;31.29;98021.81;5030373;28;881;-85
2022/09/23 03:59:23;;;;;;;;;;;;;;;21.14;31.21;98014.91;5061222;28;948;-85
2022/09/23 04:01:49;;;;;;;;;;;;;;;20.91;31.45;98018.72;5078313;28;1917;-85
2022/09/23 04:04:14;;;;;;;;;;;;;;;20.76;31.72;98012.56;5060912;28;984;-84
2022/09/23 04:06:40;;;;;;;;;;;;;;;21.25;31.40;98021.91;5061300;28;817;-85
2022/09/23 04:09:05;;;;;;;;;;;;;;;21.49;30.98;98019.72;5059723;28;1553;-85
2022/09/23 04:11:31;;;;;;;;;;;;;;;21.33;31.14;98017.69;5041352;28;783;-85
2022/09/23 04:13:57;;;;;;;;;;;;;;;21.07;31.38;98016.69;5024619;28;1177;-85
2022/09/23 04:16:22;;;;;;;;;;;;;;;21.14;31.27;98018.56;5037281;28;1117;-85
2022/09/23 04:18:48;;;;;;;;;;;;;;;20.86;31.60;98016.41;5091661;28;841;-85
2022/09/23 04:21:13;;;;;;;;;;;;;;;20.80;31.86;98022.56;5092545;28;1909;-85
2022/09/23 04:23:39;;;;;;;;;;;;;;;20.73;31.87;98028.41;5065421;28;1484;-84
2022/09/23 04:26:04;;;;;;;;;;;;;;;20.72;31.93;98023.16;5075867;28;790;-85
2022/09/23 04:28:30;;;;;;;;;;;;;;;20.76;32.05;98030.34;5059074;28;830;-85
2022/09/23 04:30:56;;;;;;;;;;;;;;;21.04;31.95;98028.09;5075645;28;719;-85
2022/09/23 04:33:23;;;;;;;;;;;;;;;21.10;31.61;98029.16;5059140;28;806;-85
2022/09/23 04:35:49;;;;;;;;;;;;;;;21.32;31.14;98038.75;5075226;28;735;-84
2022/09/23 04:38:14;;;;;;;;;;;;;;;21.32;30.88;98044.41;5071765;28;1391;-84
2022/09/23 04:40:40;;;;;;;;;;;;;;;21.09;31.37;98038.88;5078530;28;1976;-84
2022/09/23 04:43:05;;;;;;;;;;;;;;;21.03;31.57;98038.59;5079610;28;738;-84
2022/09/23 04:45:31;;;;;;;;;;;;;;;20.96;31.50;98044.44;5077961;28;1187;-83
2022/09/23 04:47:57;;;;;;;;;;;;;;;20.75;31.80;98044.91;5111873;28;923;-85
2022/09/23 04:50:25;;;;;;;;;;;;;;;20.95;31.57;98047.72;5079384;28;794;-84
2022/09/23 04:52:51;;;;;;;;;;;;;;;20.86;31.56;98050.34;5066572;28;1345;-85
2022/09/23 04:55:17;;;;;;;;;;;;;;;20.91;31.56;98044.16;5074902;28;1144;-85
2022/09/23 04:57:43;;;;;;;;;;;;;;;20.76;31.79;98047.31;5058695;28;884;-85
2022/09/23 05:00:11;;;;;;;;;;;;;;;20.95;32.07;98054.16;5074228;28;1984;-85
2022/09/23 05:02:41;;;;;;;;;;;;;;;21.13;31.72;98045.25;5041793;28;1125;-84
2022/09/23 05:05:06;;;;;;;;;;;;;;;21.32;31.23;98038.75;5091229;28;742;-85
2022/09/23 05:07:32;;;;;;;;;;;;;;;21.01;31.86;98045.94;5074923;28;1360;-84
2022/09/23 05:09:57;;;;;;;;;;;;;;;21.08;31.37;98045.75;5078813;28;798;-84
2022/09/23 05:12:23;;;;;;;;;;;;;;;21.09;31.25;98041.72;5077699;28;802;-85
2022/09/23 05:14:48;;;;;;;;;;;;;;;20.80;31.76;98036.72;5078546;28;1025;-85
2022/09/23 05:17:14;;;;;;;;;;;;;;;21.06;31.47;98042.59;5077593;28;793;-85
2022/09/23 05:19:39;;;;;;;;;;;;;;;21.25;31.91;98050.22;5076866;28;1910;-85
2022/09/23 05:22:05;;;;;;;;;;;;;;;21.30;31.38;98046.09;5092679;28;1675;-84
2022/09/23 05:24:30;;;;;;;;;;;;;;;21.47;31.48;98038.38;5098948;28;1905;-84
2022/09/23 05:26:56;;;;;;;;;;;;;;;21.18;31.59;98038.25;5061915;28;1189;-85
2022/09/23 05:29:21;;;;;;;;;;;;;;;21.22;31.07;98045.44;5070776;28;1727;-84
2022/09/23 05:31:47;;;;;;;;;;;;;;;21.05;31.34;98038.19;5078453;28;840;-85
2022/09/23 05:34:12;;;;;;;;;;;;;;;20.91;31.64;98038.50;5093886;28;1252;-84
2022/09/23 05:36:37;;;;;;;;;;;;;;;21.11;31.45;98047.72;5076674;28;893;-85
2022/09/23 05:39:03;;;;;;;;;;;;;;;20.84;31.87;98047.94;5077954;28;754;-85
2022/09/23 05:41:28;;;;;;;;;;;;;;;20.90;31.68;98056.72;5066978;28;1910;-84
2022/09/23 05:43:54;;;;;;;;;;;;;;;20.79;31.89;98049.28;5072807;28;836;-85
2022/09/23 05:46:23;;;;;;;;;;;;;;;21.13;31.55;98059.38;5045250;28;1170;-84
2022/09/23 05:48:49;;;;;;;;;;;;;;;21.16;32.31;98055.69;5108386;28;1562;-85
2022/09/23 05:51:16;;;;;;;;;;;;;;;21.28;31.72;98071.94;5110957;28;790;-85
2022/09/23 05:53:44;;;;;;;;;;;;;;;21.14;32.09;98069.50;5110348;28;769;-84
2022/09/23 05:56:13;;;;;;;;;;;;;;;21.26;31.43;98068.78;5110476;28;735;-85
2022/09/23 05:58:39;;;;;;;;;;;;;;;20.90;32.12;98079.34;5110089;28;699;-85
2022/09/23 06:01:08;;;;;;;;;;;;;;;21.00;31.91;98078.31;5075448;28;1972;-84
2022/09/23 06:03:34;;;;;;;;;;;;;;;21.08;31.67;98085.38;5110020;28;894;-85
2022/09/23 06:05:59;;;;;;;;;;;;;;;20.80;32.38;98093.28;5093971;28;1167;-85
2022/09/23 06:08:25;;;;;;;;;;;;;;;20.85;32.04;98088.34;5109916;28;900;-85
2022/09/23 06:10:50;;;;;;;;;;;;;;;20.96;32.30;98084.03;5068329;28;1673;-85
2022/09/23 06:13:16;;;;;;;;;;;;;;;20.85;32.36;98091.16;5057191;28;1801;-85
2022/09/23 06:15:43;;;;;;;;;;;;;;;21.02;32.49;98098.44;5095358;28;1893;-85
2022/09/23 06:18:09;;;;;;;;;;;;;;;21.11;32.66;98100.69;5110224;28;773;-84
2022/09/23 06:20:34;;;;;;;;;;;;;;;21.39;31.78;98104.91;5090722;28;1902;-85
2022/09/23 06:23:07;;;;;;;;;;;;;;;21.03;32.47;98112.16;5058824;28;1138;-84
2022/09/23 06:25:32;;;;;;;;;;;;;;;21.16;31.81;98109.44;5075207;28;946;-84
2022/09/23 06:27:58;;;;;;;;;;;;;;;21.03;32.06;98109.31;5081245;28;1912;-85
2022/09/23 06:30:23;;;;;;;;;;;;;;;20.97;32.18;98118.78;5061846;28;1490;-85
2022/09/23 06:32:52;;;;;;;;;;;;;;;20.84;32.25;98120.69;5075592;28;822;-85
2022/09/23 06:35:18;;;;;;;;;;;;;;;20.67;32.76;98114.94;5058638;28;1223;-85
2022/09/23 06:37:43;;;;;;;;;;;;;;;20.98;32.13;98126.81;5075377;28;714;-85
2022/09/23 06:40:09;;;;;;;;;;;;;;;20.95;33.03;98126.91;5076290;28;1973;-85
2022/09/23 06:42:34;;;;;;;;;;;;;;;21.42;31.97;98132.34;5078619;28;774;-85
2022/09/23 06:45:00;;;;;;;;;;;;;;;21.16;32.08;98129.25;5095202;28;1032;-85
2022/09/23 06:47:26;;;;;;;;;;;;;;;20.95;32.31;98124.88;5096379;28;687;-85
2022/09/23 06:49:51;;;;;;;;;;;;;;;20.87;32.33;98126.25;5076542;28;1500;-85
2022/09/23 06:52:19;;;;;;;;;;;;;;;21.00;32.13;98135.66;5061849;28;870;-85
2022/09/23 06:58:20;;;;;;;;;;;;;;;20.88;32.21;98121.38;5056609;28;1472;-85
2022/09/23 07:00:45;;;;;;;;;;;;;;;20.70;32.75;98128.22;5089997;28;1973;-85
2022/09/23 07:03:10;;;;;;;;;;;;;;;20.99;32.33;98134.09;5075919;28;801;-85
2022/09/23 07:05:37;;;;;;;;;;;;;;;21.03;32.13;98126.28;5105462;28;1515;-85
2022/09/23 07:08:05;;;;;;;;;;;;;;;20.93;32.04;98132.19;5061139;28;952;-85
2022/09/23 07:10:31;;;;;;;;;;;;;;;21.18;32.55;98128.81;5060453;28;1240;-85
2022/09/23 07:12:59;;;;;;;;;;;;;;;21.37;32.49;98121.53;5060181;28;1256;-85
2022/09/23 07:15:25;;;;;;;;;;;;;;;21.30;32.05;98114.81;5059817;28;794;-85
2022/09/23 07:17:51;;;;;;;;;;;;;;;21.18;32.08;98121.13;5059659;28;1531;-85
2022/09/23 07:20:17;;;;;;;;;;;;;;;21.13;32.26;98121.63;5042221;28;1985;-84
2022/09/23 07:22:43;;;;;;;;;;;;;;;21.10;32.02;98116.88;5042374;28;955;-85
2022/09/23 07:25:10;;;;;;;;;;;;;;;20.84;32.46;98123.53;5038416;28;923;-85
2022/09/23 07:27:35;;;;;;;;;;;;;;;20.89;32.48;98123.81;5033099;28;1579;-85
2022/09/23 07:30:01;;;;;;;;;;;;;;;20.86;32.28;98123.88;5038620;28;928;-84
2022/09/23 07:32:26;;;;;;;;;;;;;;;20.98;32.35;98117.53;5022181;28;771;-84
2022/09/23 07:34:52;;;;;;;;;;;;;;;21.08;32.70;98119.31;5038410;28;1054;-85
2022/09/23 07:37:18;;;;;;;;;;;;;;;21.25;32.62;98123.78;5038640;28;963;-85
2022/09/23 07:39:43;;;;;;;;;;;;;;;21.18;32.34;98123.94;5037422;28;1898;-85
2022/09/23 07:42:11;;;;;;;;;;;;;;;21.18;32.24;98123.16;5021844;28;1497;-85
2022/09/23 07:44:36;;;;;;;;;;;;;;;21.13;32.19;98110.31;5028428;28;1553;-84
2022/09/23 07:47:02;;;;;;;;;;;;;;;20.97;32.34;98113.13;5039045;28;895;-85
2022/09/23 07:49:28;;;;;;;;;;;;;;;20.65;32.99;98108.94;5021553;28;941;-85
2022/09/23 07:51:53;;;;;;;;;;;;;;;20.85;32.63;98105.31;5037848;28;1484;-84
2022/09/23 07:54:19;;;;;;;;;;;;;;;20.87;32.70;98111.31;5038216;28;790;-86
2022/09/23 07:56:44;;;;;;;;;;;;;;;20.86;32.48;98113.34;5022118;28;1019;-84
2022/09/23 07:59:14;;;;;;;;;;;;;;;20.94;32.46;98119.66;5037783;28;767;-85
2022/09/23 08:01:43;;;;;;;;;;;;;;;20.87;32.46;98112.09;5036044;28;1906;-85
2022/09/23 08:04:16;;;;;;;;;;;;;;;21.11;32.76;98112.81;5074988;28;1464;-85
2022/09/23 08:06:42;;;;;;;;;;;;;;;21.26;32.52;98108.41;5075763;28;1139;-84
2022/09/23 08:09:08;;;;;;;;;;;;;;;21.24;32.40;98119.38;5059330;28;1452;-85
2022/09/23 08:11:34;;;;;;;;;;;;;;;21.07;32.71;98120.56;5060340;28;739;-85
2022/09/23 08:13:59;;;;;;;;;;;;;;;20.95;32.54;98126.91;5059676;28;774;-85
2022/09/23 08:16:24;;;;;;;;;;;;;;;20.99;32.29;98121.97;5060279;28;845;-85
2022/09/23 08:18:50;;;;;;;;;;;;;;;21.17;32.02;98122.34;5059792;28;794;-85
2022/09/23 08:21:19;;;;;;;;;;;;;;;21.02;32.18;98118.25;5058905;28;1918;-84
2022/09/23 08:23:45;;;;;;;;;;;;;;;20.93;32.63;98124.50;5103733;28;1467;-84
2022/09/23 08:26:11;;;;;;;;;;;;;;;20.93;32.58;98118.84;5091192;28;1799;-85
2022/09/23 08:28:36;;;;;;;;;;;;;;;20.92;32.49;98122.13;5077089;28;804;-85
2022/09/23 08:31:02;;;;;;;;;;;;;;;20.96;32.23;98117.19;5077728;28;791;-84
2022/09/23 08:33:27;;;;;;;;;;;;;;;21.08;32.12;98108.81;5077179;28;846;-85
2022/09/23 08:35:53;;;;;;;;;;;;;;;21.28;32.38;98105.91;5061132;28;1121;-85
2022/09/23 08:38:19;;;;;;;;;;;;;;;21.44;31.97;98104.38;5082983;28;1287;-85
2022/09/23 08:40:46;;;;;;;;;;;;;;;21.40;32.17;98100.81;5097343;28;1910;-84
2022/09/23 08:43:24;;;;;;;;;;;;;;;21.20;32.19;98103.72;5063918;28;1168;-85
2022/09/23 08:45:50;;;;;;;;;;;;;;;21.10;32.16;98099.09;5080893;28;845;-85
2022/09/23 08:48:17;;;;;;;;;;;;;;;21.08;32.00;98088.19;5080389;28;1250;-85
2022/09/23 08:50:47;;;;;;;;;;;;;;;21.04;32.27;98098.81;5064108;28;1295;-85
2022/09/23 08:53:14;;;;;;;;;;;;;;;21.03;32.26;98100.03;5058194;28;1490;-85
2022/09/23 08:55:46;;;;;;;;;;;;;;;21.17;31.70;98094.06;5060503;28;711;-84
2022/09/23 08:58:33;;;;;;;;;;;;;;;20.96;32.33;98100.22;5041493;28;777;-85
2022/09/23 09:01:02;;;;;;;;;;;;;;;20.93;32.40;98090.56;5057227;28;1910;-84
2022/09/23 09:03:47;;;;;;;;;;;;;;;20.99;32.18;98088.81;5056613;28;1136;-85
2022/09/23 09:06:17;;;;;;;;;;;;;;;21.08;31.92;98103.13;5056884;28;1006;-85
2022/09/23 09:08:43;;;;;;;;;;;;;;;20.97;32.05;98088.44;5075902;28;1445;-84
2022/09/23 09:11:08;;;;;;;;;;;;;;;21.05;32.76;98087.06;5043554;28;1252;-85
2022/09/23 09:13:36;;;;;;;;;;;;;;;21.29;32.36;98089.72;5059079;28;1475;-84
2022/09/23 09:16:19;;;;;;;;;;;;;;;21.01;32.63;98091.22;5037253;28;913;-85
2022/09/23 09:18:52;;;;;;;;;;;;;;;21.08;32.13;98091.03;5030309;28;868;-85
2022/09/23 09:21:17;;;;;;;;;;;;;;;20.98;32.12;98092.06;5017086;28;1906;-84
2022/09/23 09:23:56;;;;;;;;;;;;;;;21.06;31.80;98087.84;5001618;28;1562;-85
2022/09/23 09:26:21;;;;;;;;;;;;;;;21.04;32.07;98096.78;5003902;28;1150;-85
2022/09/23 09:28:48;;;;;;;;;;;;;;;21.05;32.07;98086.25;5036343;28;862;-85
2022/09/23 09:31:13;;;;;;;;;;;;;;;20.99;32.09;98093.69;5017014;28;858;-85
2022/09/23 09:33:46;;;;;;;;;;;;;;;21.05;31.95;98087.06;5016459;28;901;-85
2022/09/23 09:36:17;;;;;;;;;;;;;;;21.03;32.15;98097.22;5000555;28;993;-85
2022/09/23 09:38:43;;;;;;;;;;;;;;;20.99;31.97;98093.69;5014340;28;879;-85
2022/09/23 09:41:15;;;;;;;;;;;;;;;20.91;32.07;98089.41;4997295;28;1985;-85
2022/09/23 09:43:40;;;;;;;;;;;;;;;20.98;31.99;98097.72;4996527;28;952;-85
2022/09/23 09:46:07;;;;;;;;;;;;;;;21.06;31.81;98094.31;4986179;28;850;-85
2022/09/23 09:48:39;;;;;;;;;;;;;;;20.99;32.16;98093.69;5019497;28;858;-85
2022/09/23 09:51:23;;;;;;;;;;;;;;;20.91;32.27;98097.91;5020049;28;1360;-84
2022/09/23 09:53:51;;;;;;;;;;;;;;;21.10;32.42;98094.22;5019340;28;759;-84
2022/09/23 09:56:17;;;;;;;;;;;;;;;21.20;32.73;98098.84;5020203;28;880;-85
2022/09/23 09:58:49;;;;;;;;;;;;;;;21.39;32.28;98093.56;5019341;28;1211;-85
2022/09/23 10:01:19;;;;;;;;;;;;;;;21.26;32.44;98091.41;5022815;28;1975;-85
2022/09/23 10:03:44;;;;;;;;;;;;;;;21.16;32.23;98097.34;5073709;28;1109;-85
2022/09/23 10:09:48;;;;;;;;;;;;;;;20.92;32.66;98088.16;5038144;28;613;-85
2022/09/23 10:12:17;;;;;;;;;;;;;;;21.13;31.95;98087.69;5037549;28;1164;-85
2022/09/23 10:14:46;;;;;;;;;;;;;;;21.06;31.89;98087.84;5037054;28;759;-85
2022/09/23 10:17:14;;;;;;;;;;;;;;;21.07;31.87;98083.78;5019997;28;1130;-85
2022/09/23 10:19:43;;;;;;;;;;;;;;;21.14;31.79;98083.63;5035184;28;2004;-85
2022/09/23 10:22:14;;;;;;;;;;;;;;;21.12;32.00;98079.63;5040124;28;846;-85
2022/09/23 10:24:40;;;;;;;;;;;;;;;21.02;32.25;98075.81;5039569;28;1425;-84
2022/09/23 10:27:10;;;;;;;;;;;;;;;21.01;32.00;98080.69;5040076;28;810;-85
2022/09/23 10:29:37;;;;;;;;;;;;;;;20.99;32.07;98076.72;5016080;28;904;-85
2022/09/23 10:32:13;;;;;;;;;;;;;;;20.86;32.15;98068.09;4982058;28;1576;-85
2022/09/23 10:34:41;;;;;;;;;;;;;;;20.90;31.98;98068.81;5014928;28;1347;-85
2022/09/23 10:37:17;;;;;;;;;;;;;;;20.91;32.26;98069.63;5015822;28;834;-85
2022/09/23 10:48:19;;;;;;;;;;;;;;;20.96;32.64;98066.25;5012651;28;822;-84
2022/09/23 10:50:48;;;;;;;;;;;;;;;21.10;32.21;98074.44;5019971;28;1090;-85
2022/09/23 10:53:22;;;;;;;;;;;;;;;21.20;32.21;98066.94;5025980;28;1472;-85
2022/09/23 10:55:50;;;;;;;;;;;;;;;20.96;32.54;98060.59;5031998;28;1561;-85
2022/09/23 10:58:25;;;;;;;;;;;;;;;21.03;32.31;98054.78;5051820;28;1211;-84
2022/09/23 11:01:03;;;;;;;;;;;;;;;20.74;32.77;98049.78;5049665;28;1910;-85
2022/09/23 11:03:32;;;;;;;;;;;;;;;20.85;32.30;98043.09;5054457;28;1553;-85
2022/09/23 11:06:06;;;;;;;;;;;;;;;20.99;32.26;98054.09;5057832;28;782;-85
2022/09/23 11:08:38;;;;;;;;;;;;;;;21.06;31.67;98051.06;5057082;28;786;-85
2022/09/23 11:11:07;;;;;;;;;;;;;;;20.98;32.23;98055.28;5088932;28;1737;-84
2022/09/23 11:13:51;;;;;;;;;;;;;;;20.96;31.78;98060.59;5074900;28;1240;-85
2022/09/23 11:16:37;;;;;;;;;;;;;;;21.02;31.60;98048.31;5075701;28;790;-85
2022/09/23 11:19:20;;;;;;;;;;;;;;;21.10;31.65;98054.63;5058034;28;1584;-85
2022/09/23 11:21:52;;;;;;;;;;;;;;;21.08;32.93;98045.75;5055096;28;1914;-85
2022/09/23 11:24:30;;;;;;;;;;;;;;;21.20;32.40;98042.25;5054409;28;790;-85
2022/09/23 11:26:55;;;;;;;;;;;;;;;21.13;32.33;98039.59;5021876;28;1232;-84
2022/09/23 11:29:20;;;;;;;;;;;;;;;20.97;32.23;98039.56;5054574;28;810;-85
2022/09/23 11:32:01;;;;;;;;;;;;;;;21.01;32.25;98041.09;5022548;28;1193;-84
2022/09/23 11:34:29;;;;;;;;;;;;;;;21.20;31.55;98042.25;5054894;28;785;-85
2022/09/23 11:36:59;;;;;;;;;;;;;;;21.27;31.29;98036.41;5068014;28;1473;-85
2022/09/23 11:39:29;;;;;;;;;;;;;;;21.22;31.64;98033.31;5073825;28;1321;-85
2022/09/23 11:41:55;;;;;;;;;;;;;;;20.98;31.96;98029.84;5074691;28;1906;-85
2022/09/23 11:44:37;;;;;;;;;;;;;;;21.00;32.08;98039.50;5065965;28;797;-85
2022/09/23 11:47:07;;;;;;;;;;;;;;;20.90;32.05;98039.75;5035098;28;884;-85
2022/09/23 11:49:41;;;;;;;;;;;;;;;21.04;32.01;98039.41;5054990;28;958;-85
2022/09/23 11:52:09;;;;;;;;;;;;;;;21.27;32.44;98036.41;5037749;28;1558;-84
2022/09/23 11:54:38;;;;;;;;;;;;;;;21.62;31.67;98033.16;5038222;28;775;-85
2022/09/23 11:57:04;;;;;;;;;;;;;;;21.24;32.07;98039.31;5055209;28;795;-85
2022/09/23 11:59:30;;;;;;;;;;;;;;;20.87;32.51;98040.59;5054685;28;802;-85
2022/09/23 12:05:35;;;;;;;;;;;;;;;20.75;32.24;98048.53;5038511;28;1596;-85
2022/09/23 12:08:06;;;;;;;;;;;;;;;20.94;32.45;98044.09;5054449;28;803;-85
2022/09/23 12:10:46;;;;;;;;;;;;;;;21.30;31.96;98037.59;5038128;28;870;-85
2022/09/23 12:13:18;;;;;;;;;;;;;;;21.45;31.69;98035.19;5037650;28;905;-85
2022/09/23 12:15:46;;;;;;;;;;;;;;;21.12;31.58;98035.16;5021916;28;1507;-85
2022/09/23 12:18:27;;;;;;;;;;;;;;;21.00;31.95;98030.22;5049112;28;922;-85
2022/09/23 12:21:11;;;;;;;;;;;;;;;20.91;31.75;98030.03;5061607;28;1977;-84
2022/09/23 12:24:01;;;;;;;;;;;;;;;20.90;31.70;98028.44;5067308;28;1360;-85
2022/09/23 12:26:27;;;;;;;;;;;;;;;20.91;31.37;98035.69;5057741;28;800;-85
2022/09/23 12:28:53;;;;;;;;;;;;;;;20.59;32.17;98025.88;5040798;28;880;-85
2022/09/23 12:31:29;;;;;;;;;;;;;;;20.58;31.73;98023.50;5024792;28;1226;-84
2022/09/23 12:33:54;;;;;;;;;;;;;;;20.75;32.20;98023.09;5025005;28;1118;-85
2022/09/23 12:36:31;;;;;;;;;;;;;;;21.28;31.10;98023.84;5040942;28;1491;-84
2022/09/23 12:39:03;;;;;;;;;;;;;;;21.38;31.01;98018.41;5040395;28;813;-85
2022/09/23 12:41:36;;;;;;;;;;;;;;;21.06;31.08;98015.09;5030527;28;1977;-85
2022/09/23 12:44:14;;;;;;;;;;;;;;;20.92;31.38;98020.28;5036693;28;783;-85
2022/09/23 12:46:42;;;;;;;;;;;;;;;20.99;31.19;98020.94;5037294;28;719;-85
2022/09/23 12:49:40;;;;;;;;;;;;;;;20.70;31.26;98020.78;5053622;28;921;-85
2022/09/23 12:52:12;;;;;;;;;;;;;;;20.89;31.46;98021.19;5007518;28;1476;-85
2022/09/23 12:54:41;;;;;;;;;;;;;;;21.42;30.30;98027.59;5016072;28;1499;-84
2022/09/23 12:57:06;;;;;;;;;;;;;;;21.16;30.85;98035.09;5000468;28;1480;-83
2022/09/23 12:59:53;;;;;;;;;;;;;;;21.00;31.13;98033.03;5013478;28;1531;-84
2022/09/23 13:02:26;;;;;;;;;;;;;;;20.68;31.59;98025.31;5001145;28;1748;-84
2022/09/23 13:07:41;;;;;;;;;;;;;;;20.75;31.24;98040.06;5014445;28;1091;-85
2022/09/23 13:10:10;;;;;;;;;;;;;;;20.96;31.41;98032.31;5000463;28;751;-85
2022/09/23 13:12:37;;;;;;;;;;;;;;;21.26;30.40;98032.00;5000784;28;810;-85
2022/09/23 13:15:05;;;;;;;;;;;;;;;21.51;30.20;98027.78;5008147;28;1565;-85
2022/09/23 13:17:35;;;;;;;;;;;;;;;21.06;30.57;98042.59;5020362;28;841;-84
2022/09/23 13:20:02;;;;;;;;;;;;;;;21.08;30.74;98038.06;5019920;28;1917;-85
2022/09/23 13:22:46;;;;;;;;;;;;;;;20.68;31.18;98023.28;5019587;28;1529;-85
2022/09/23 13:25:15;;;;;;;;;;;;;;;20.79;31.14;98040.78;5036136;28;732;-85
2022/09/23 13:27:41;;;;;;;;;;;;;;;21.21;30.50;98032.53;5027554;28;880;-85
2022/09/23 13:30:12;;;;;;;;;;;;;;;21.36;30.05;98043.53;5070627;28;715;-84
2022/09/23 13:32:38;;;;;;;;;;;;;;;21.03;30.56;98037.81;5038614;28;758;-84